createdAt,value
2018-06-04T00:01:44.365Z,0
2018-06-04T00:11:44.343Z,0
2018-06-04T00:21:44.247Z,0
2018-06-04T00:31:44.297Z,0
2018-06-04T00:41:44.260Z,0
2018-06-04T00:51:44.217Z,0
2018-06-04T01:01:44.289Z,0
2018-06-04T01:11:44.289Z,0
2018-06-04T01:28:12.063Z,0
2018-06-04T01:31:44.160Z,0
2018-06-04T01:41:44.247Z,0
2018-06-04T01:51:44.269Z,0
2018-06-04T02:01:44.253Z,0
2018-06-04T02:11:44.189Z,0
2018-06-04T02:21:44.264Z,0
2018-06-04T02:31:44.234Z,0
2018-06-04T02:41:44.304Z,0
2018-06-04T02:51:44.280Z,0
2018-06-04T03:01:44.225Z,0
2018-06-04T03:11:44.277Z,5
2018-06-04T03:21:44.207Z,10
2018-06-04T03:31:44.316Z,15
2018-06-04T03:41:44.278Z,30
2018-06-04T03:51:44.212Z,40
2018-06-04T04:01:44.354Z,50
2018-06-04T04:11:44.308Z,60
2018-06-04T04:21:44.205Z,70
2018-06-04T04:31:44.256Z,85
2018-06-04T04:41:44.254Z,95
2018-06-04T04:51:44.303Z,105
2018-06-04T05:01:44.275Z,120
2018-06-04T05:11:44.251Z,130
2018-06-04T05:21:44.263Z,140
2018-06-04T05:31:44.353Z,145
2018-06-04T05:41:44.259Z,170
2018-06-04T05:51:44.289Z,210
2018-06-04T06:01:44.312Z,260
2018-06-04T06:11:44.289Z,275
2018-06-04T06:21:44.243Z,285
2018-06-04T06:31:44.272Z,305
2018-06-04T06:41:44.355Z,325
2018-06-04T06:51:44.285Z,330
2018-06-04T07:01:44.312Z,355
2018-06-04T07:11:44.591Z,360
2018-06-04T07:21:44.386Z,370
2018-06-04T07:31:44.275Z,380
2018-06-04T07:41:44.247Z,385
2018-06-04T07:51:44.264Z,385
2018-06-04T08:01:44.396Z,390
2018-06-04T08:11:44.468Z,395
2018-06-04T08:21:44.377Z,390
2018-06-04T08:31:44.207Z,385
2018-06-04T08:41:44.377Z,375
2018-06-04T08:51:44.361Z,370
2018-06-04T09:01:44.292Z,250
2018-06-04T09:11:44.337Z,250
2018-06-04T09:21:44.523Z,235
2018-06-04T09:31:44.623Z,290
2018-06-04T09:41:44.492Z,315
2018-06-04T09:51:44.400Z,255
2018-06-04T10:01:44.349Z,245
2018-06-04T10:11:44.332Z,300
2018-06-04T10:21:44.364Z,275
2018-06-04T10:31:44.341Z,235
2018-06-04T10:41:44.380Z,260
2018-06-04T10:51:44.327Z,245
2018-06-04T11:01:44.439Z,215
2018-06-04T11:11:44.326Z,230
2018-06-04T11:21:44.376Z,300
2018-06-04T11:31:44.409Z,250
2018-06-04T11:41:44.342Z,315
2018-06-04T11:51:44.497Z,220
2018-06-04T12:01:44.388Z,195
2018-06-04T12:11:44.531Z,255
2018-06-04T12:21:44.348Z,235
2018-06-04T12:31:44.348Z,210
2018-06-04T12:41:44.378Z,185
2018-06-04T12:51:44.371Z,255
2018-06-04T13:01:44.343Z,230
2018-06-04T13:11:44.343Z,255
2018-06-04T13:21:44.445Z,265
2018-06-04T13:31:45.513Z,190
2018-06-04T13:41:44.334Z,175
2018-06-04T13:51:44.420Z,185
2018-06-04T14:01:44.455Z,125
2018-06-04T14:11:44.419Z,155
2018-06-04T14:21:44.430Z,175
2018-06-04T14:31:44.454Z,135
2018-06-04T14:41:44.438Z,160
2018-06-04T14:51:44.382Z,135
2018-06-04T15:01:44.356Z,140
2018-06-04T15:11:44.496Z,140
2018-06-04T15:21:44.539Z,135
2018-06-04T15:31:44.397Z,105
2018-06-04T15:41:44.414Z,115
2018-06-04T15:51:44.374Z,130
2018-06-04T16:01:44.378Z,125
2018-06-04T16:11:44.382Z,135
2018-06-04T16:21:44.398Z,110
2018-06-04T16:31:44.433Z,125
2018-06-04T16:41:44.451Z,125
2018-06-04T16:51:44.509Z,115
2018-06-04T17:01:44.569Z,100
2018-06-04T17:11:45.991Z,90
2018-06-04T17:21:44.442Z,85
2018-06-04T17:31:44.718Z,80
2018-06-04T17:41:44.443Z,80
2018-06-04T17:51:44.547Z,75
2018-06-04T18:01:44.516Z,70
2018-06-04T18:11:44.438Z,65
2018-06-04T18:21:44.515Z,60
2018-06-04T18:31:44.598Z,50
2018-06-04T18:41:44.465Z,45
2018-06-04T18:51:44.534Z,35
2018-06-04T19:01:44.659Z,25
2018-06-04T19:11:44.508Z,20
2018-06-04T19:21:44.691Z,15
2018-06-04T19:31:44.594Z,10
2018-06-04T19:41:44.484Z,5
2018-06-04T19:51:44.601Z,0
2018-06-04T20:01:45.598Z,0
2018-06-04T20:11:44.575Z,0
2018-06-04T20:21:44.559Z,0
2018-06-04T20:31:44.606Z,0
2018-06-04T20:41:44.691Z,0
2018-06-04T20:51:44.553Z,0
2018-06-04T21:01:44.694Z,0
2018-06-04T21:11:45.795Z,0
2018-06-04T21:21:44.525Z,0
2018-06-04T21:31:44.901Z,0
2018-06-04T21:41:44.534Z,0
2018-06-04T21:52:01.715Z,0
2018-06-04T22:01:53.835Z,0
2018-06-04T22:12:11.902Z,0
2018-06-04T22:21:52.709Z,0
2018-06-04T22:31:54.156Z,0
2018-06-04T22:42:05.155Z,0
2018-06-04T22:51:59.856Z,0
2018-06-04T23:01:53.150Z,0
2018-06-04T23:12:21.732Z,0
2018-06-04T23:21:53.871Z,0
2018-06-04T23:32:33.237Z,0
2018-06-04T23:42:09.069Z,0
2018-06-04T23:51:53.555Z,0
